^^
Saratoga-Weather Station Historical Data
Daily Summary for July 12, 2021 Units:  English    Metric   Both
Daily Weekly Monthly Yearly Custom
  High: Low: Average:
Temperature: 76.8 °F 57.9 °F 63.1 °F
Dew Point: 65.5 °F 56.5 °F 59.5 °F
Humidity: 97% 66% 89%
Wind Speed: 2.9mph 0mph 0.2mph
Wind Gust: 4mph - -
Wind- - East
Pressure: 30.1 in 30.1 in -
Precipitation: 0 in    
Historical Graphs
 
 
Tabular Data for July 12, 2021
Time Temperature Dew Point Pressure Wind Wind Speed Wind Gust Humidity Rainfall Rate (Hourly) solar
00:03 63.7 °F 60.1 °F 30.1 in Calm     88% 0 in 0 W/m2
00:08 63.5 °F 59.9 °F 30.1 in Calm     88% 0 in 0 W/m2
00:13 63.3 °F 60.1 °F 30.1 in Calm     89% 0 in 0 W/m2
00:18 63.3 °F 60.1 °F 30.1 in Calm     89% 0 in 0 W/m2
00:23 63.1 °F 60.1 °F 30.1 in Calm     90% 0 in 0 W/m2
00:28 63.1 °F 60.1 °F 30.1 in Calm     90% 0 in 0 W/m2
00:33 63 °F 59.9 °F 30.1 in Calm     90% 0 in 0 W/m2
00:38 63 °F 59.9 °F 30.1 in Calm     90% 0 in 0 W/m2
00:43 62.8 °F 59.7 °F 30.1 in Calm     90% 0 in 0 W/m2
00:48 62.8 °F 59.7 °F 30.1 in Calm     90% 0 in 0 W/m2
00:53 62.6 °F 59.5 °F 30.1 in Calm     90% 0 in 0 W/m2
00:58 62.4 °F 59.7 °F 30.1 in Calm     91% 0 in 0 W/m2
01:03 62.2 °F 59.5 °F 30.1 in Calm     91% 0 in 0 W/m2
01:08 62.2 °F 59.5 °F 30.1 in Calm     91% 0 in 0 W/m2
01:13 62.1 °F 59.4 °F 30.1 in Calm     91% 0 in 0 W/m2
01:18 62.1 °F 59.4 °F 30.1 in Calm     91% 0 in 0 W/m2
01:23 62.1 °F 59.4 °F 30.1 in Calm     91% 0 in 0 W/m2
01:28 61.9 °F 59.5 °F 30.1 in Calm     92% 0 in 0 W/m2
01:33 61.9 °F 59.5 °F 30.1 in Calm     92% 0 in 0 W/m2
01:38 61.7 °F 59.4 °F 30.1 in Calm     92% 0 in 0 W/m2
01:43 61.7 °F 59.4 °F 30.1 in Calm     92% 0 in 0 W/m2
01:48 61.5 °F 59.2 °F 30.1 in Calm     92% 0 in 0 W/m2
01:53 61.3 °F 59 °F 30.1 in Calm     92% 0 in 0 W/m2
01:58 61.3 °F 59 °F 30.1 in Calm     92% 0 in 0 W/m2
02:03 61.3 °F 59 °F 30.1 in Calm     92% 0 in 0 W/m2
02:08 61.2 °F 59.2 °F 30.1 in Calm     93% 0 in 0 W/m2
02:13 61.2 °F 59.2 °F 30.1 in Calm     93% 0 in 0 W/m2
02:18 61 °F 58.6 °F 30.1 in Calm     92% 0 in 0 W/m2
02:23 61 °F 59 °F 30.1 in Calm     93% 0 in 0 W/m2
02:28 60.8 °F 58.8 °F 30.1 in Calm     93% 0 in 0 W/m2
02:33 60.6 °F 58.6 °F 30.1 in Calm     93% 0 in 0 W/m2
02:38 60.4 °F 58.5 °F 30.1 in Calm     93% 0 in 0 W/m2
02:43 60.4 °F 58.5 °F 30.1 in Calm     93% 0 in 0 W/m2
02:48 60.3 °F 58.3 °F 30.1 in Calm     93% 0 in 0 W/m2
02:53 60.3 °F 58.3 °F 30.1 in Calm     93% 0 in 0 W/m2
02:58 60.3 °F 58.3 °F 30.1 in Calm     93% 0 in 0 W/m2
03:03 60.1 °F 58.1 °F 30.1 in Calm     93% 0 in 0 W/m2
03:08 60.1 °F 58.3 °F 30.1 in Calm     94% 0 in 0 W/m2
03:13 59.9 °F 58.1 °F 30.1 in Calm     94% 0 in 0 W/m2
03:18 59.7 °F 57.9 °F 30.1 in Calm     94% 0 in 0 W/m2
03:23 59.7 °F 57.9 °F 30.1 in Calm     94% 0 in 0 W/m2
03:28 59.7 °F 57.9 °F 30.1 in Calm     94% 0 in 0 W/m2
03:33 59.5 °F 57.7 °F 30.1 in Calm     94% 0 in 0 W/m2
03:38 59.5 °F 57.7 °F 30.1 in Calm     94% 0 in 0 W/m2
03:43 59.5 °F 57.7 °F 30.1 in Calm     94% 0 in 0 W/m2
03:48 59.4 °F 57.6 °F 30.1 in Calm     94% 0 in 0 W/m2
03:53 59.4 °F 57.6 °F 30.1 in Calm     94% 0 in 0 W/m2
03:58 59.2 °F 57.4 °F 30.1 in Calm     94% 0 in 0 W/m2
04:03 59 °F 57.2 °F 30.1 in Calm     94% 0 in 0 W/m2
04:08 58.8 °F 57 °F 30.1 in Calm     94% 0 in 0 W/m2
04:13 58.8 °F 57 °F 30.1 in Calm     94% 0 in 0 W/m2
04:18 58.8 °F 57 °F 30.1 in Calm     94% 0 in 0 W/m2
04:23 58.8 °F 57.4 °F 30.1 in Calm     95% 0 in 0 W/m2
04:28 58.8 °F 57.4 °F 30.1 in Calm     95% 0 in 0 W/m2
04:33 58.8 °F 57.4 °F 30.1 in Calm     95% 0 in 0 W/m2
04:38 59 °F 57.6 °F 30.1 in Calm     95% 0 in 0 W/m2
04:43 59 °F 57.6 °F 30.1 in Calm     95% 0 in 0 W/m2
04:49 59 °F 57.6 °F 30.1 in Calm     95% 0 in 0 W/m2
04:54 58.8 °F 57.4 °F 30.1 in Calm     95% 0 in 0 W/m2
04:59 58.8 °F 57.4 °F 30.1 in Calm     95% 0 in 0 W/m2
05:04 58.8 °F 57.4 °F 30.1 in Calm     95% 0 in 0 W/m2
05:09 58.8 °F 57.4 °F 30.1 in Calm     95% 0 in 0 W/m2
05:14 58.8 °F 57.4 °F 30.1 in Calm     95% 0 in 0 W/m2
05:19 58.6 °F 57.2 °F 30.1 in Calm     95% 0 in 0 W/m2
05:24 58.6 °F 57.2 °F 30.1 in Calm     95% 0 in 0 W/m2
05:29 58.6 °F 57.2 °F 30.1 in Calm     95% 0 in 0 W/m2
05:34 58.5 °F 57 °F 30.1 in Calm     95% 0 in 0 W/m2
05:39 58.5 °F 57 °F 30.1 in Calm     95% 0 in 0 W/m2
05:44 58.5 °F 57 °F 30.1 in Calm     95% 0 in 0 W/m2
05:49 58.5 °F 57 °F 30.1 in Calm     95% 0 in 0 W/m2
05:54 58.3 °F 56.8 °F 30.1 in Calm     95% 0 in 0 W/m2
05:59 58.3 °F 56.8 °F 30.1 in Calm     95% 0 in 0 W/m2
06:04 58.3 °F 56.8 °F 30.1 in Calm     95% 0 in 0 W/m2
06:09 58.3 °F 56.8 °F 30.1 in Calm     95% 0 in 0 W/m2
06:14 58.3 °F 56.8 °F 30.1 in Calm     95% 0 in 0 W/m2
06:19 58.3 °F 56.8 °F 30.1 in Calm     95% 0 in 0 W/m2
06:24 58.3 °F 56.8 °F 30.1 in Calm     95% 0 in 0 W/m2
06:29 58.1 °F 56.7 °F 30.1 in Calm     95% 0 in 5 W/m2
06:34 58.1 °F 56.7 °F 30.1 in Calm     95% 0 in 7 W/m2
06:39 57.9 °F 56.5 °F 30.1 in Calm     95% 0 in 11 W/m2
06:44 57.9 °F 56.8 °F 30.1 in Calm     96% 0 in 14 W/m2
06:49 57.9 °F 56.8 °F 30.1 in Calm     96% 0 in 18 W/m2
06:54 57.9 °F 56.8 °F 30.1 in Calm     96% 0 in 21 W/m2
06:59 57.9 °F 56.8 °F 30.1 in Calm     96% 0 in 26 W/m2
07:04 57.9 °F 56.8 °F 30.1 in Calm     96% 0 in 30 W/m2
07:09 58.1 °F 57 °F 30.1 in Calm     96% 0 in 33 W/m2
07:14 58.3 °F 57.2 °F 30.1 in Calm     96% 0 in 40 W/m2
07:19 58.3 °F 57.2 °F 30.1 in Calm     96% 0 in 47 W/m2
07:24 58.5 °F 57.4 °F 30.1 in Calm     96% 0 in 54 W/m2
07:29 58.5 °F 57.4 °F 30.1 in Calm     96% 0 in 58 W/m2
07:34 58.6 °F 57.6 °F 30.1 in Calm     96% 0 in 54 W/m2
07:39 58.8 °F 57.7 °F 30.1 in Calm     96% 0 in 54 W/m2
07:44 59.2 °F 58.1 °F 30.1 in Calm     96% 0 in 56 W/m2
07:49 59.4 °F 58.5 °F 30.1 in Calm     97% 0 in 60 W/m2
07:54 59.5 °F 58.5 °F 30.1 in Calm     96% 0 in 62 W/m2
07:59 59.7 °F 58.6 °F 30.1 in Calm     96% 0 in 72 W/m2
08:04 60.3 °F 59.4 °F 30.1 in Calm     97% 0 in 69 W/m2
08:09 60.4 °F 59.5 °F 30.1 in Calm     97% 0 in 72 W/m2
08:14 61 °F 59.9 °F 30.1 in NE 0.9 mph 1 mph 96% 0 in 70 W/m2
08:19 61.5 °F 60.4 °F 30.1 in NE 0.9 mph 2 mph 96% 0 in 67 W/m2
08:24 62.2 °F 60.8 °F 30.1 in Calm   1 mph 95% 0 in 69 W/m2
08:29 63 °F 61.2 °F 30.1 in Calm     94% 0 in 74 W/m2
08:34 63.7 °F 61.3 °F 30.1 in Calm     92% 0 in 83 W/m2
08:39 64 °F 61.3 °F 30.1 in Calm   1 mph 91% 0 in 134 W/m2
08:44 64.6 °F 61.3 °F 30.1 in Calm     89% 0 in 218 W/m2
08:49 65.1 °F 61.5 °F 30.1 in ENE 0.9 mph 1 mph 88% 0 in 264 W/m2
08:54 65.7 °F 61.3 °F 30.1 in Calm   2 mph 86% 0 in 283 W/m2
08:59 66 °F 61.3 °F 30.1 in Calm   2 mph 85% 0 in 306 W/m2
09:04 66.4 °F 61 °F 30.1 in Calm   1 mph 83% 0 in 295 W/m2
09:09 66.7 °F 61.3 °F 30.1 in NE 0.9 mph 2 mph 83% 0 in 323 W/m2
09:14 67.1 °F 61.3 °F 30.1 in NE 2 mph 3 mph 82% 0 in 378 W/m2
09:19 67.5 °F 62.1 °F 30.1 in ENE 2 mph 2 mph 83% 0 in 364 W/m2
09:24 67.6 °F 61.9 °F 30.1 in NE 0.9 mph 3 mph 82% 0 in 346 W/m2
09:29 67.6 °F 61.9 °F 30.1 in Calm   1 mph 82% 0 in 309 W/m2
09:34 67.6 °F 61.9 °F 30.1 in Calm   1 mph 82% 0 in 369 W/m2
09:39 67.6 °F 61.5 °F 30.1 in Calm   1 mph 81% 0 in 114 W/m2
09:44 67.8 °F 62.1 °F 30.1 in Calm   1 mph 82% 0 in 142 W/m2
09:49 68.4 °F 62.2 °F 30.1 in NE 2 mph 3 mph 81% 0 in 427 W/m2
09:54 68.7 °F 61.9 °F 30.1 in Calm   3 mph 79% 0 in 455 W/m2
09:59 68.9 °F 61.3 °F 30.1 in Calm     77% 0 in 510 W/m2
10:04 69.3 °F 62.4 °F 30.1 in NE 0.9 mph 3 mph 79% 0 in 512 W/m2
10:09 70 °F 63.1 °F 30.1 in East 0.9 mph 2 mph 79% 0 in 536 W/m2
10:14 70.3 °F 63.1 °F 30.1 in ENE 2 mph 3 mph 78% 0 in 540 W/m2
10:19 70.5 °F 63 °F 30.1 in ENE 0.9 mph 2 mph 77% 0 in 476 W/m2
10:24 70.9 °F 63 °F 30.1 in NE 2.9 mph 3 mph 76% 0 in 475 W/m2
10:29 71.1 °F 63.1 °F 30.1 in East 0.9 mph 3 mph 76% 0 in 496 W/m2
10:34 71.8 °F 63.9 °F 30.1 in NE 0.9 mph 3 mph 76% 0 in 527 W/m2
10:39 72 °F 63.7 °F 30.1 in Calm   2 mph 75% 0 in 471 W/m2
10:44 72.3 °F 63.5 °F 30.1 in NNW 2 mph 3 mph 74% 0 in 381 W/m2
10:49 72.5 °F 64 °F 30.1 in Calm   2 mph 75% 0 in 598 W/m2
10:54 73.2 °F 64.8 °F 30.1 in Calm   2 mph 75% 0 in 587 W/m2
10:59 73.8 °F 64.6 °F 30.1 in NNW 0.9 mph 2 mph 73% 0 in 545 W/m2
11:04 73.9 °F 64.4 °F 30.1 in NNW 2 mph 3 mph 72% 0 in 694 W/m2
11:09 73.9 °F 63.9 °F 30.1 in Calm   2 mph 71% 0 in 387 W/m2
11:14 73.9 °F 63.9 °F 30.1 in NNE 0.9 mph 1 mph 71% 0 in 415 W/m2
11:19 74.5 °F 64.4 °F 30.1 in NE 0.9 mph 3 mph 71% 0 in 346 W/m2
11:24 74.7 °F 64.2 °F 30.1 in Calm     70% 0 in 388 W/m2
11:29 74.8 °F 64.4 °F 30.1 in Calm   2 mph 70% 0 in 359 W/m2
11:34 75.4 °F 64.6 °F 30.1 in ENE 0.9 mph 1 mph 69% 0 in 554 W/m2
11:39 75.7 °F 64.4 °F 30.1 in East 2 mph 3 mph 68% 0 in 554 W/m2
11:44 76.1 °F 64.4 °F 30.1 in Calm   1 mph 67% 0 in 494 W/m2
11:49 76.5 °F 65.1 °F 30.1 in NE 2.9 mph 4 mph 68% 0 in 552 W/m2
11:54 76.5 °F 64.2 °F 30.1 in Calm   1 mph 66% 0 in 584 W/m2
11:59 76.8 °F 65.5 °F 30.1 in ENE 2 mph 4 mph 68% 0 in 591 W/m2
Juneau County Weather
Compliments of Weather Underground - 4 mb